Time;durP1;ratioP1;P1;durP2;ratioP2;P2;SDS_P1;SDS_P2;PMS_P1;PMS_P2;Temp;Humidity;BMP_temperature;BMP_pressure;BME280_temperature;BME280_humidity;BME280_pressure;Samples;Min_cycle;Max_cycle;Signal;HPM_P1;HPM_P2
2022/04/16 00:00:29;;;;;;;5.75;3.65;;;;;;;11.33;82.89;100666.03;5590729;31;33953;-64
2022/04/16 00:03:33;;;;;;;5.97;3.50;;;;;;;11.19;83.57;100663.22;5589956;31;34111;-64
2022/04/16 00:06:36;;;;;;;5.07;3.47;;;;;;;11.00;85.13;100661.69;5589876;31;33870;-64
2022/04/16 00:09:39;;;;;;;5.95;3.65;;;;;;;10.97;85.46;100658.53;5590549;31;34021;-64
2022/04/16 00:12:42;;;;;;;4.90;3.30;;;;;;;10.81;86.82;100654.03;5589889;31;33921;-63
2022/04/16 00:15:54;;;;;;;5.40;4.07;;;;;;;10.75;86.63;100658.16;5589812;31;33932;-64
2022/04/16 00:18:57;;;;;;;5.43;3.90;;;;;;;10.71;87.35;100662.12;5590543;31;33936;-64
2022/04/16 00:22:12;;;;;;;6.70;4.07;;;;;;;10.53;88.38;100664.06;5590466;31;34490;-64
2022/04/16 00:25:16;;;;;;;7.82;4.72;;;;;;;10.39;89.82;100662.03;5590393;31;34770;-64
2022/04/16 00:28:19;;;;;;;7.28;4.53;;;;;;;10.33;90.90;100655.53;5590368;31;34491;-64
2022/04/16 00:31:22;;;;;;;7.70;4.85;;;;;;;10.28;91.64;100665.78;5590710;31;33859;-64
2022/04/16 00:34:25;;;;;;;10.43;5.35;;;;;;;10.21;92.65;100653.34;5589380;31;33184;-64
2022/04/16 00:37:28;;;;;;;5.75;4.37;;;;;;;10.23;92.81;100646.03;5590213;31;33890;-64
2022/04/16 00:40:31;;;;;;;7.35;5.00;;;;;;;10.15;93.24;100648.62;5590296;31;33955;-64
2022/04/16 00:43:34;;;;;;;6.78;5.05;;;;;;;10.10;94.21;100650.94;5589692;31;32347;-64
2022/04/16 00:46:36;;;;;;;9.63;5.43;;;;;;;10.13;93.73;100648.78;5589572;31;33067;-64
2022/04/16 00:49:39;;;;;;;8.52;5.70;;;;;;;10.09;94.24;100647.44;5590336;31;33961;-64
2022/04/16 00:52:44;;;;;;;8.80;5.68;;;;;;;9.98;95.01;100650.34;5590358;31;34328;-64
2022/04/16 00:55:47;;;;;;;12.20;5.68;;;;;;;9.97;95.41;100644.22;5590382;31;33913;-64
2022/04/16 00:58:50;;;;;;;9.02;6.03;;;;;;;10.01;94.92;100650.87;5589468;31;33038;-64
2022/04/16 01:01:52;;;;;;;8.10;5.57;;;;;;;9.93;95.28;100648.19;5590289;31;34325;-64
2022/04/16 01:04:55;;;;;;;9.82;6.45;;;;;;;9.84;96.31;100643.81;5590477;31;35259;-63
2022/04/16 01:07:59;;;;;;;9.48;6.70;;;;;;;9.76;96.74;100640.28;5590521;31;33851;-63
2022/04/16 01:11:02;;;;;;;9.75;6.12;;;;;;;9.78;96.83;100631.19;5589394;31;33051;-64
2022/04/16 01:14:05;;;;;;;9.48;6.43;;;;;;;9.66;97.65;100634.25;5590068;31;33899;-63
2022/04/16 01:17:09;;;;;;;8.77;5.90;;;;;;;9.56;98.05;100637.84;5589930;31;34783;-63
2022/04/16 01:20:11;;;;;;;9.57;6.43;;;;;;;9.53;97.87;100637.34;5589300;31;33258;-63
2022/04/16 01:23:15;;;;;;;9.80;6.80;;;;;;;9.56;96.90;100639.66;5589989;31;33935;-63
2022/04/16 01:26:17;;;;;;;8.75;6.37;;;;;;;9.51;96.47;100634.84;5590235;31;34552;-64
2022/04/16 01:29:20;;;;;;;9.13;6.05;;;;;;;9.53;95.53;100638.16;5590074;31;34008;-63
2022/04/16 01:32:25;;;;;;;12.32;6.80;;;;;;;9.44;96.17;100628.47;5589322;31;34667;-65
2022/04/16 01:35:27;;;;;;;9.95;6.15;;;;;;;9.37;96.29;100643.34;5589002;31;33285;-65
2022/04/16 01:38:30;;;;;;;9.93;6.93;;;;;;;9.34;96.25;100641.00;5589941;31;33905;-65
2022/04/16 01:41:34;;;;;;;10.52;6.20;;;;;;;9.27;96.43;100639.09;5589175;31;33930;-65
2022/04/16 01:44:36;;;;;;;10.68;7.12;;;;;;;9.20;97.08;100649.47;5589192;31;32413;-65
2022/04/16 01:47:39;;;;;;;10.95;7.20;;;;;;;9.16;97.02;100646.28;5589646;31;34768;-65
2022/04/16 01:50:42;;;;;;;10.40;7.28;;;;;;;9.08;97.81;100650.69;5589748;31;33870;-65
2022/04/16 01:53:45;;;;;;;10.98;7.15;;;;;;;9.01;98.32;100658.38;5589636;31;34002;-65
2022/04/16 01:56:47;;;;;;;12.65;7.07;;;;;;;8.96;98.59;100654.53;5589682;31;34681;-64
2022/04/16 01:59:50;;;;;;;11.85;6.87;;;;;;;8.95;98.64;100650.25;5588709;31;33105;-66
2022/04/16 02:02:53;;;;;;;12.93;8.50;;;;;;;8.83;99.78;100643.50;5589732;31;34028;-66
2022/04/16 02:05:56;;;;;;;12.13;8.27;;;;;;;8.85;99.11;100638.91;5589629;31;34088;-65
2022/04/16 02:08:58;;;;;;;12.00;7.72;;;;;;;8.80;99.52;100644.63;5588830;31;34628;-65
2022/04/16 02:12:02;;;;;;;11.43;7.45;;;;;;;8.78;99.76;100635.16;5589654;31;33946;-65
2022/04/16 02:15:05;;;;;;;11.05;7.68;;;;;;;8.73;100.00;100630.34;5589661;31;34260;-65
2022/04/16 02:18:08;;;;;;;10.82;7.35;;;;;;;8.72;99.69;100640.06;5588350;31;33151;-64
2022/04/16 02:21:11;;;;;;;11.70;7.60;;;;;;;8.61;100.00;100637.66;5589606;31;34596;-65
2022/04/16 02:24:14;;;;;;;11.88;7.65;;;;;;;8.63;100.00;100635.69;5588654;31;33073;-65
2022/04/16 02:27:16;;;;;;;10.35;7.03;;;;;;;8.60;100.00;100630.72;5588660;31;32757;-63
2022/04/16 02:30:20;;;;;;;10.30;7.37;;;;;;;8.64;100.00;100633.87;5589241;31;34387;-62
2022/04/16 02:33:22;;;;;;;11.63;7.45;;;;;;;8.60;100.00;100620.13;5588621;31;34667;-63
2022/04/16 02:36:25;;;;;;;11.32;7.50;;;;;;;8.60;100.00;100620.13;5575751;31;34030;-63
2022/04/16 02:39:28;;;;;;;10.55;7.00;;;;;;;8.53;100.00;100620.84;5575233;31;33589;-63
2022/04/16 02:42:35;;;;;;;10.20;7.22;;;;;;;8.51;100.00;100623.66;5589245;31;34032;-63
2022/04/16 02:49:00;;;;;;;10.07;6.97;;;;;;;8.54;100.00;100609.31;5589162;31;34030;-63
2022/04/16 02:52:03;;;;;;;11.90;7.70;;;;;;;8.57;100.00;100614.28;5588120;31;32541;-63
2022/04/16 02:55:06;;;;;;;10.63;7.25;;;;;;;8.52;100.00;100609.44;5589049;31;34172;-63
2022/04/16 02:58:09;;;;;;;10.50;7.05;;;;;;;8.50;100.00;100618.53;5588556;31;32350;-63
2022/04/16 03:01:11;;;;;;;11.48;7.57;;;;;;;8.54;100.00;100602.22;5588191;31;32663;-63
2022/04/16 03:04:14;;;;;;;8.48;6.32;;;;;;;8.52;100.00;100608.62;5588288;31;33253;-64
2022/04/16 03:07:17;;;;;;;9.90;6.70;;;;;;;8.46;100.00;100615.34;5588024;31;33984;-65
2022/04/16 03:10:20;;;;;;;7.93;6.00;;;;;;;8.45;100.00;100608.38;5588857;31;34583;-64
2022/04/16 03:13:23;;;;;;;10.93;7.15;;;;;;;8.54;99.87;100610.13;5575176;31;32733;-64
2022/04/16 03:19:47;;;;;;;10.18;6.62;;;;;;;8.55;98.09;100611.81;5588250;31;35019;-64
2022/04/16 03:22:49;;;;;;;13.93;6.45;;;;;;;8.54;98.60;100610.13;5588830;31;34571;-64
2022/04/16 03:25:53;;;;;;;11.02;6.35;;;;;;;8.48;98.51;100599.31;5588501;31;34545;-64
2022/04/16 03:28:56;;;;;;;12.05;6.62;;;;;;;8.51;98.55;100612.25;5587674;31;33909;-65
2022/04/16 03:31:59;;;;;;;9.13;6.45;;;;;;;8.44;98.83;100614.66;5588543;31;33982;-64
2022/04/16 03:35:02;;;;;;;7.93;5.30;;;;;;;8.37;99.71;100615.41;5587567;31;34632;-65
2022/04/16 03:38:05;;;;;;;9.65;6.03;;;;;;;8.36;99.30;100619.03;5588221;31;33995;-64
2022/04/16 03:41:08;;;;;;;8.77;5.68;;;;;;;8.39;99.18;100616.06;5588222;31;33941;-64
2022/04/16 03:44:10;;;;;;;9.50;6.25;;;;;;;8.45;98.60;100623.41;5588078;31;33992;-64
2022/04/16 03:47:13;;;;;;;8.43;5.50;;;;;;;8.50;98.06;100619.34;5588376;31;34568;-64
2022/04/16 03:50:17;;;;;;;9.30;5.82;;;;;;;8.45;98.32;100618.97;5588013;31;34098;-64
2022/04/16 03:53:20;;;;;;;7.68;5.50;;;;;;;8.44;98.18;100625.22;5588021;31;35182;-64
2022/04/16 03:59:59;;;;;;;7.47;5.20;;;;;;;8.45;97.50;100607.56;5590670;31;33857;-64
2022/04/16 04:03:02;;;;;;;8.48;5.18;;;;;;;8.43;97.23;100631.50;5589972;31;33935;-64
2022/04/16 04:06:05;;;;;;;7.40;5.43;;;;;;;8.43;96.92;100633.28;5590041;31;32182;-62
2022/04/16 04:09:07;;;;;;;6.05;4.78;;;;;;;8.38;97.56;100632.91;5589812;31;34100;-64
2022/04/16 04:12:15;;;;;;;7.50;4.95;;;;;;;8.35;97.68;100635.84;5589919;31;32396;-63
2022/04/16 04:15:17;;;;;;;7.72;4.82;;;;;;;8.33;97.55;100636.00;5589992;31;32498;-64
2022/04/16 04:18:22;;;;;;;6.30;4.97;;;;;;;8.30;97.70;100641.59;5590651;31;34553;-64
2022/04/16 04:21:25;;;;;;;7.47;4.72;;;;;;;8.28;97.62;100643.50;5589756;31;34122;-65
2022/04/16 04:24:28;;;;;;;6.62;4.93;;;;;;;8.22;98.16;100646.75;5589633;31;33238;-63
2022/04/16 04:27:30;;;;;;;8.60;4.78;;;;;;;8.21;98.16;100653.00;5589465;31;32498;-63
2022/04/16 04:30:33;;;;;;;5.87;4.37;;;;;;;8.20;97.69;100654.81;5590547;31;33931;-65
2022/04/16 04:33:36;;;;;;;6.53;4.40;;;;;;;8.23;97.28;100648.38;5589757;31;32419;-64
2022/04/16 04:36:38;;;;;;;5.78;4.03;;;;;;;8.22;97.41;100662.59;5589732;31;33973;-63
2022/04/16 04:39:41;;;;;;;6.95;4.07;;;;;;;8.19;97.65;100654.94;5589639;31;33620;-64
2022/04/16 04:42:44;;;;;;;7.22;4.00;;;;;;;8.19;97.42;100652.31;5589333;31;33114;-64
2022/04/16 04:45:47;;;;;;;5.28;4.12;;;;;;;8.15;97.85;100664.16;5589282;31;34164;-64
2022/04/16 04:48:50;;;;;;;5.07;4.03;;;;;;;8.20;97.51;100668.03;5590649;31;33934;-64
2022/04/16 04:51:52;;;;;;;5.62;3.90;;;;;;;8.18;97.43;100664.69;5590216;31;34197;-64
2022/04/16 04:54:59;;;;;;;6.45;4.25;;;;;;;8.11;97.74;100666.25;5576636;31;33234;-63
2022/04/16 04:58:02;;;;;;;6.03;4.12;;;;;;;8.11;97.86;100674.19;5576528;31;32362;-64
2022/04/16 05:01:05;;;;;;;5.70;4.10;;;;;;;8.12;98.05;100677.66;5589006;31;33231;-64
2022/04/16 05:04:07;;;;;;;7.62;4.55;;;;;;;8.07;98.14;100679.91;5589200;31;33771;-64
2022/04/16 05:07:10;;;;;;;6.75;4.93;;;;;;;8.10;98.45;100677.81;5589738;31;33843;-63
2022/04/16 05:10:13;;;;;;;5.40;4.10;;;;;;;8.08;98.57;100690.34;5589792;31;34082;-63
2022/04/16 05:13:15;;;;;;;6.30;4.30;;;;;;;8.17;98.17;100689.47;5576047;31;33344;-64
2022/04/16 05:16:18;;;;;;;6.82;4.43;;;;;;;8.32;97.31;100689.88;5590047;31;33958;-63
2022/04/16 05:19:21;;;;;;;5.85;4.20;;;;;;;8.42;96.53;100695.94;5589982;31;33912;-64
2022/04/16 05:22:23;;;;;;;6.87;4.45;;;;;;;8.73;93.82;100694.66;5589345;31;33147;-63
2022/04/16 05:25:26;;;;;;;6.45;4.32;;;;;;;8.89;92.43;100687.87;5589239;31;34561;-64
2022/04/16 05:28:29;;;;;;;6.53;4.37;;;;;;;8.93;91.49;100698.00;5589735;31;33980;-64
2022/04/16 05:31:32;;;;;;;6.57;4.00;;;;;;;8.86;91.78;100699.56;5589749;31;33942;-64
2022/04/16 05:34:35;;;;;;;5.80;3.60;;;;;;;8.72;92.79;100708.84;5589853;31;34560;-64
2022/04/16 05:37:38;;;;;;;6.03;3.90;;;;;;;8.84;92.41;100706.84;5589762;31;34198;-64
2022/04/16 05:40:41;;;;;;;6.03;3.80;;;;;;;8.87;91.97;100706.53;5589087;31;32619;-64
2022/04/16 05:43:43;;;;;;;7.12;4.25;;;;;;;9.02;90.46;100714.81;5589876;31;33958;-64
2022/04/16 05:46:46;;;;;;;5.90;3.78;;;;;;;9.03;89.90;100714.66;5590081;31;33912;-63
2022/04/16 05:49:49;;;;;;;6.95;3.87;;;;;;;9.16;88.99;100714.28;5589311;31;35098;-64
2022/04/16 05:52:52;;;;;;;4.87;3.53;;;;;;;9.20;89.00;100706.91;5588791;31;32773;-64
2022/04/16 05:55:55;;;;;;;9.73;3.90;;;;;;;9.13;89.40;100715.44;5589830;31;34178;-64
2022/04/16 05:59:00;;;;;;;5.50;3.92;;;;;;;9.03;89.71;100719.13;5589618;31;34501;-65
2022/04/16 06:02:03;;;;;;;4.60;3.53;;;;;;;9.14;89.18;100722.38;5588649;31;33300;-63
2022/04/16 06:05:07;;;;;;;5.47;3.85;;;;;;;9.07;89.36;100725.78;5588887;31;32448;-63
2022/04/16 06:08:09;;;;;;;5.68;3.80;;;;;;;8.95;89.72;100730.47;5588634;31;33609;-64
2022/04/16 06:11:12;;;;;;;8.63;3.92;;;;;;;9.31;88.14;100727.81;5575850;31;32678;-64
2022/04/16 06:14:15;;;;;;;6.03;3.67;;;;;;;9.32;88.17;100734.78;5588648;31;33325;-64
2022/04/16 06:17:18;;;;;;;4.55;3.03;;;;;;;9.58;86.71;100733.84;5588461;31;33259;-64
2022/04/16 06:20:21;;;;;;;6.32;3.67;;;;;;;9.71;84.81;100730.00;5588606;31;32557;-64
2022/04/16 06:23:24;;;;;;;7.25;3.58;;;;;;;9.72;84.96;100732.50;5575598;31;34064;-64
2022/04/16 06:26:26;;;;;;;5.32;3.33;;;;;;;9.94;83.77;100721.41;5588583;31;32833;-64
2022/04/16 06:29:29;;;;;;;4.03;3.05;;;;;;;9.96;83.16;100739.81;5589226;31;35220;-64
2022/04/16 06:32:33;;;;;;;4.20;3.00;;;;;;;9.84;83.51;100735.72;5588511;31;32684;-64
2022/04/16 06:35:36;;;;;;;5.65;3.12;;;;;;;9.90;82.96;100737.75;5588724;31;32247;-65
2022/04/16 06:38:38;;;;;;;4.28;2.95;;;;;;;10.20;81.88;100750.59;5588565;31;32831;-65
2022/04/16 06:41:41;;;;;;;6.07;3.17;;;;;;;10.19;81.49;100751.59;5588448;31;33041;-65
2022/04/16 06:44:45;;;;;;;5.37;3.45;;;;;;;9.98;81.74;100753.72;5588656;31;32337;-65
2022/04/16 06:47:48;;;;;;;4.28;3.05;;;;;;;10.32;80.38;100761.75;5575325;31;33299;-64
2022/04/16 06:50:50;;;;;;;4.25;2.80;;;;;;;10.33;79.90;100756.31;5588402;31;32880;-63
2022/04/16 06:53:53;;;;;;;3.67;3.05;;;;;;;10.13;80.98;100759.28;5588260;31;33476;-63
2022/04/16 06:56:55;;;;;;;3.75;2.75;;;;;;;10.08;81.59;100773.00;5588378;31;32897;-64
2022/04/16 06:59:58;;;;;;;3.30;2.65;;;;;;;10.26;80.85;100760.56;5588035;31;34585;-64
2022/04/16 07:03:01;;;;;;;3.80;2.67;;;;;;;10.49;80.20;100766.19;5587933;31;33210;-64
2022/04/16 07:06:04;;;;;;;4.68;3.10;;;;;;;10.48;79.12;100771.63;5588987;31;33939;-63
2022/04/16 07:09:07;;;;;;;4.82;3.10;;;;;;;10.71;78.01;100772.75;5588295;31;33311;-64
2022/04/16 07:12:10;;;;;;;3.90;2.90;;;;;;;10.89;77.41;100769.00;5588075;31;32426;-64
2022/04/16 07:15:13;;;;;;;4.65;3.03;;;;;;;10.94;77.03;100783.66;5588026;31;32384;-64
2022/04/16 07:18:16;;;;;;;4.10;2.72;;;;;;;10.54;78.98;100787.78;5587742;31;33564;-64
2022/04/16 07:21:18;;;;;;;4.50;2.58;;;;;;;10.75;77.61;100788.19;5586985;31;34140;-64
2022/04/16 07:24:23;;;;;;;4.00;3.03;;;;;;;10.81;77.85;100794.69;5587712;31;32668;-64
2022/04/16 07:27:25;;;;;;;5.30;2.95;;;;;;;10.99;77.21;100784.81;5587866;31;33588;-64
2022/04/16 07:30:28;;;;;;;3.78;2.53;;;;;;;10.86;76.06;100795.88;5587392;31;32720;-64
2022/04/16 07:33:30;;;;;;;3.37;2.75;;;;;;;11.32;74.33;100799.03;5590860;31;34028;-65
2022/04/16 07:36:33;;;;;;;3.75;2.50;;;;;;;11.55;73.60;100801.91;5589957;31;32555;-65
2022/04/16 07:39:36;;;;;;;4.05;2.65;;;;;;;11.72;71.94;100792.94;5589974;31;32598;-65
2022/04/16 07:42:39;;;;;;;4.30;2.58;;;;;;;11.86;71.58;100797.62;5590833;31;34591;-65
2022/04/16 07:45:42;;;;;;;3.72;2.28;;;;;;;12.01;70.11;100797.78;5589780;31;32518;-65
2022/04/16 07:48:45;;;;;;;3.67;2.30;;;;;;;12.78;67.60;100793.69;5590016;31;32447;-64
2022/04/16 07:51:48;;;;;;;5.32;2.20;;;;;;;13.29;65.12;100800.28;5589876;31;32676;-64
2022/04/16 07:54:52;;;;;;;4.05;2.45;;;;;;;13.26;64.36;100784.66;5589908;31;33561;-66
2022/04/16 07:57:54;;;;;;;3.97;2.47;;;;;;;13.32;64.21;100778.59;5589832;31;32862;-65
2022/04/16 08:00:57;;;;;;;3.60;2.22;;;;;;;12.75;65.35;100789.50;5589740;31;33671;-64
2022/04/16 08:04:01;;;;;;;2.80;2.00;;;;;;;12.19;68.02;100790.47;5589603;31;32766;-66
2022/04/16 08:07:04;;;;;;;3.53;2.40;;;;;;;13.36;63.55;100802.06;5589873;31;32584;-64
2022/04/16 08:10:08;;;;;;;2.80;2.00;;;;;;;13.75;59.46;100793.13;5589682;31;32570;-64
2022/04/16 08:13:10;;;;;;;2.42;1.87;;;;;;;14.40;57.31;100795.28;5589877;31;33681;-65
2022/04/16 08:16:13;;;;;;;3.87;2.40;;;;;;;15.83;51.88;100795.41;5590303;31;33986;-65
2022/04/16 08:19:16;;;;;;;2.67;2.03;;;;;;;17.00;48.27;100791.12;5576822;31;33391;-66
2022/04/16 08:22:21;;;;;;;2.45;1.90;;;;;;;17.36;48.49;100794.38;5589367;31;33973;-65
2022/04/16 08:28:26;;;;;;;2.22;1.75;;;;;;;17.73;44.62;100803.75;5589402;31;33980;-66
2022/04/16 08:31:29;;;;;;;3.33;2.00;;;;;;;16.14;48.75;100799.59;5589240;31;33812;-65
2022/04/16 08:34:32;;;;;;;4.07;2.47;;;;;;;15.59;50.57;100803.81;5589406;31;33283;-65
2022/04/16 08:37:34;;;;;;;2.80;2.03;;;;;;;14.64;54.10;100803.88;5590193;31;34614;-65
2022/04/16 08:40:37;;;;;;;2.67;2.12;;;;;;;14.21;54.21;100785.94;5589110;31;32836;-65
2022/04/16 08:43:46;;;;;;;2.62;1.90;;;;;;;14.29;54.17;100793.84;5589126;31;34066;-65
2022/04/16 08:46:48;;;;;;;2.92;1.92;;;;;;;14.54;54.32;100797.97;5590238;31;34349;-65
2022/04/16 08:49:51;;;;;;;3.30;2.00;;;;;;;14.00;54.99;100801.78;5590442;31;35177;-65
2022/04/16 08:52:54;;;;;;;3.20;1.90;;;;;;;13.72;56.39;100809.50;5588402;31;32559;-65
2022/04/16 08:55:56;;;;;;;3.45;2.20;;;;;;;13.64;55.89;100804.25;5588773;31;33406;-64
2022/04/16 08:59:00;;;;;;;4.53;2.03;;;;;;;13.06;57.51;100813.53;5590097;31;34259;-64
2022/04/16 09:02:04;;;;;;;3.17;1.90;;;;;;;13.18;58.09;100819.31;5588845;31;33063;-65
2022/04/16 09:05:09;;;;;;;3.50;1.90;;;;;;;13.14;57.26;100818.00;5589399;31;32696;-64
2022/04/16 09:08:12;;;;;;;4.32;1.98;;;;;;;12.76;59.35;100822.28;5588994;31;32520;-64
2022/04/16 09:11:20;;;;;;;2.50;1.70;;;;;;;13.17;57.97;100821.16;5589031;31;33667;-65
2022/04/16 09:14:36;;;;;;;3.20;1.80;;;;;;;12.82;58.90;100817.13;5576166;31;32329;-65
2022/04/16 09:17:40;;;;;;;2.55;1.48;;;;;;;13.14;57.62;100818.00;5589249;31;32414;-65
2022/04/16 09:20:42;;;;;;;2.22;1.37;;;;;;;13.37;56.15;100813.56;5590155;31;34792;-65
2022/04/16 09:23:47;;;;;;;1.85;1.37;;;;;;;13.85;55.01;100815.06;5588707;31;33642;-64
2022/04/16 09:26:50;;;;;;;1.92;1.40;;;;;;;13.79;55.98;100815.81;5575777;31;32518;-65
2022/04/16 09:29:54;;;;;;;2.08;1.48;;;;;;;13.62;57.86;100817.75;5589637;31;34051;-65
2022/04/16 09:32:57;;;;;;;1.90;1.20;;;;;;;13.58;58.31;100810.28;5589834;31;34015;-64
2022/04/16 09:36:00;;;;;;;2.33;1.33;;;;;;;13.13;59.86;100817.19;5576202;31;32374;-66
2022/04/16 09:39:07;;;;;;;2.35;1.55;;;;;;;13.03;61.13;100828.00;5589825;31;33993;-64
2022/04/16 09:42:11;;;;;;;2.28;1.52;;;;;;;13.10;61.02;100825.50;5588656;31;34793;-64
2022/04/16 09:45:14;;;;;;;2.33;1.40;;;;;;;12.86;61.39;100834.41;5589656;31;34615;-65
2022/04/16 09:48:17;;;;;;;2.67;1.60;;;;;;;12.51;62.48;100827.69;5589715;31;33929;-65
2022/04/16 09:51:24;;;;;;;2.08;1.50;;;;;;;12.51;63.17;100829.50;5589038;31;32531;-65
2022/04/16 09:54:27;;;;;;;2.80;1.25;;;;;;;12.58;62.61;100831.34;5588442;31;32481;-64
2022/04/16 09:57:33;;;;;;;2.87;1.60;;;;;;;12.77;61.51;100821.28;5589361;31;34244;-66
2022/04/16 10:00:37;;;;;;;2.60;1.50;;;;;;;12.85;61.03;100824.75;5588800;31;32432;-65
2022/04/16 10:04:01;;;;;;;3.05;1.50;;;;;;;13.08;61.33;100819.50;5588975;31;33293;-64
2022/04/16 10:07:04;;;;;;;1.87;1.40;;;;;;;13.44;60.36;100820.69;5589707;31;34602;-65
2022/04/16 10:10:17;;;;;;;2.53;1.67;;;;;;;13.71;58.38;100815.84;5588633;31;33774;-64
2022/04/16 10:13:22;;;;;;;1.80;1.30;;;;;;;14.05;57.49;100820.75;5588853;31;33325;-64
2022/04/16 10:16:39;;;;;;;1.85;1.23;;;;;;;14.10;55.49;100816.53;5588520;31;32434;-64
2022/04/16 10:19:47;;;;;;;1.87;1.37;;;;;;;14.33;54.60;100809.31;5588240;31;34106;-64
2022/04/16 10:22:57;;;;;;;1.77;1.40;;;;;;;14.29;56.01;100810.69;5589273;31;34590;-64
2022/04/16 10:26:03;;;;;;;1.60;1.33;;;;;;;14.75;54.65;100814.09;5589328;31;34669;-65
2022/04/16 10:29:06;;;;;;;2.53;1.37;;;;;;;15.11;52.59;100813.31;5583194;31;195027;-66
2022/04/16 10:32:16;;;;;;;1.48;1.15;;;;;;;15.22;52.65;100813.69;5588399;31;32731;-65
2022/04/16 10:35:19;;;;;;;3.45;1.42;;;;;;;15.21;51.61;100811.19;5588527;31;33673;-65
2022/04/16 10:38:32;;;;;;;3.47;1.30;;;;;;;14.92;51.19;100805.88;5589060;31;33965;-65
2022/04/16 10:41:35;;;;;;;2.10;1.02;;;;;;;15.34;51.51;100802.50;5589109;31;34600;-65
2022/04/16 10:44:46;;;;;;;2.55;1.33;;;;;;;17.55;46.16;100805.34;5588109;31;33317;-67
2022/04/16 10:47:51;;;;;;;1.83;1.12;;;;;;;17.00;45.71;100801.00;5588588;31;32382;-65
2022/04/16 10:50:57;;;;;;;1.80;1.02;;;;;;;16.72;47.10;100809.94;5588130;31;32487;-66
2022/04/16 10:54:10;;;;;;;2.53;1.12;;;;;;;16.43;47.50;100802.94;5589054;31;35199;-66
2022/04/16 10:57:21;;;;;;;1.23;0.88;;;;;;;16.47;46.21;100806.03;5588368;31;34596;-65
2022/04/16 11:00:45;;;;;;;1.50;1.00;;;;;;;15.49;49.89;100796.06;5588933;31;34132;-66
2022/04/16 11:03:48;;;;;;;1.35;0.98;;;;;;;14.77;51.95;100816.56;5587995;31;32726;-65
2022/04/16 11:06:57;;;;;;;1.30;1.00;;;;;;;14.11;54.56;100812.03;5587233;31;33500;-65
2022/04/16 11:10:00;;;;;;;2.00;1.00;;;;;;;13.94;54.77;100817.50;5588699;31;34235;-65
2022/04/16 11:13:02;;;;;;;1.30;1.00;;;;;;;14.03;55.03;100815.63;5587996;31;32824;-64
2022/04/16 11:16:06;;;;;;;3.22;1.45;;;;;;;13.60;57.22;100819.78;5588664;31;34427;-64
2022/04/16 11:19:15;;;;;;;2.90;1.15;;;;;;;13.85;57.07;100820.41;5575048;31;34740;-65
2022/04/16 11:22:18;;;;;;;2.17;1.20;;;;;;;14.59;56.11;100814.25;5574440;31;33751;-64
2022/04/16 11:25:25;;;;;;;6.18;1.12;;;;;;;15.13;54.06;100817.47;5588375;31;33920;-65
2022/04/16 11:35:12;;;;;;;1.65;1.30;;;;;;;14.23;58.31;100826.63;5587028;31;33539;-64
2022/04/16 11:38:25;;;;;;;1.40;1.15;;;;;;;14.20;57.50;100817.13;5587443;31;32986;-64
2022/04/16 11:41:28;;;;;;;1.48;0.95;;;;;;;14.25;57.77;100816.56;5587992;31;34016;-63
2022/04/16 11:44:41;;;;;;;1.55;0.80;;;;;;;14.42;56.37;100802.13;5588059;31;33667;-65
2022/04/16 11:47:43;;;;;;;2.05;1.08;;;;;;;14.48;57.04;100803.19;5587782;31;33919;-65
2022/04/16 11:50:46;;;;;;;1.58;0.93;;;;;;;14.47;56.76;100805.06;5588008;31;33915;-64
2022/04/16 11:53:52;;;;;;;0.70;0.68;;;;;;;14.59;56.29;100792.91;5588206;31;34524;-65
2022/04/16 11:56:56;;;;;;;1.42;1.08;;;;;;;14.51;55.71;100792.16;5574383;31;32645;-65
2022/04/16 12:00:04;;;;;;;1.77;0.90;;;;;;;14.49;55.31;100786.19;5586899;31;32961;-65
2022/04/16 12:03:08;;;;;;;1.00;0.90;;;;;;;14.59;55.63;100786.72;5587319;31;34143;-65
2022/04/16 12:06:12;;;;;;;1.15;1.00;;;;;;;14.53;57.11;100787.47;5586596;31;33975;-65
2022/04/16 12:09:16;;;;;;;3.67;0.90;;;;;;;14.83;52.78;100782.94;5573926;31;33152;-65
2022/04/16 12:12:22;;;;;;;1.35;0.70;;;;;;;14.65;51.34;100772.66;5586967;31;33948;-65
2022/04/16 12:15:27;;;;;;;0.80;0.68;;;;;;;14.67;51.19;100766.09;5573640;31;32423;-65
2022/04/16 12:18:36;;;;;;;1.23;0.80;;;;;;;14.98;50.56;100773.06;5589155;31;32445;-66
2022/04/16 12:21:42;;;;;;;1.20;0.80;;;;;;;15.15;48.89;100767.31;5589649;31;32657;-65
2022/04/16 12:24:45;;;;;;;1.58;0.65;;;;;;;15.22;48.26;100765.56;5589308;31;32648;-66
2022/04/16 12:27:56;;;;;;;0.88;0.60;;;;;;;14.99;48.56;100762.22;5589593;31;32411;-64
2022/04/16 12:30:59;;;;;;;1.00;0.60;;;;;;;14.63;48.16;100758.66;5590301;31;35209;-64
2022/04/16 12:34:02;;;;;;;0.70;0.50;;;;;;;14.59;48.93;100760.88;5589227;31;33418;-65
2022/04/16 12:37:05;;;;;;;0.60;0.50;;;;;;;14.97;48.62;100768.75;5590741;31;34490;-65
2022/04/16 12:40:08;;;;;;;3.20;0.60;;;;;;;15.21;47.75;100769.25;5590285;31;34059;-65
2022/04/16 12:43:11;;;;;;;2.95;0.55;;;;;;;14.90;47.68;100766.00;5589518;31;33618;-65
2022/04/16 12:46:14;;;;;;;1.48;0.60;;;;;;;14.87;47.26;100766.37;5589521;31;33293;-65
2022/04/16 12:49:19;;;;;;;0.77;0.62;;;;;;;14.67;47.42;100774.12;5589535;31;32303;-65
2022/04/16 12:52:23;;;;;;;2.55;0.70;;;;;;;14.74;46.86;100767.03;5590279;31;34281;-65
2022/04/16 12:55:28;;;;;;;1.75;0.88;;;;;;;14.56;47.47;100755.91;5590320;31;34612;-66
2022/04/16 12:58:31;;;;;;;2.53;0.68;;;;;;;14.42;48.07;100755.91;5589241;31;34306;-66
2022/04/16 13:01:34;;;;;;;2.87;0.60;;;;;;;14.54;48.06;100749.91;5589515;31;32398;-65
2022/04/16 13:04:37;;;;;;;1.45;0.73;;;;;;;14.41;47.72;100754.25;5589310;31;32606;-65
2022/04/16 13:07:41;;;;;;;2.12;0.47;;;;;;;14.17;48.97;100758.78;5589466;31;34620;-65
2022/04/16 13:10:43;;;;;;;4.28;0.65;;;;;;;14.18;49.14;100755.13;5589228;31;32534;-65
2022/04/16 13:13:47;;;;;;;0.88;0.60;;;;;;;14.10;48.44;100755.19;5589212;31;34296;-64
2022/04/16 13:16:50;;;;;;;1.52;0.68;;;;;;;14.04;49.28;100749.75;5589061;31;33655;-65
2022/04/16 13:19:53;;;;;;;0.65;0.50;;;;;;;14.17;48.62;100758.78;5588988;31;33409;-65
2022/04/16 13:22:55;;;;;;;0.70;0.60;;;;;;;14.09;48.67;100760.69;5562739;31;32694;-64
2022/04/16 13:25:59;;;;;;;1.17;0.60;;;;;;;14.02;49.22;100760.59;5589477;31;33950;-64
2022/04/16 13:29:01;;;;;;;1.00;0.60;;;;;;;13.95;50.67;100764.97;5588313;31;32776;-64
2022/04/16 13:32:05;;;;;;;0.73;0.70;;;;;;;13.19;56.41;100754.38;5588787;31;32894;-64
2022/04/16 13:35:09;;;;;;;0.50;0.50;;;;;;;13.06;58.46;100768.25;5589799;31;34091;-64
2022/04/16 13:38:12;;;;;;;0.82;0.70;;;;;;;12.96;59.96;100764.97;5589750;31;33888;-64
2022/04/16 13:44:36;;;;;;;1.40;0.70;;;;;;;13.21;56.34;100771.03;5588686;31;33869;-65
2022/04/16 13:47:39;;;;;;;0.80;0.60;;;;;;;13.31;55.04;100761.78;5589831;31;34648;-65
2022/04/16 13:50:42;;;;;;;0.50;0.47;;;;;;;13.26;54.34;100766.84;5589049;31;33964;-65
2022/04/16 13:53:44;;;;;;;1.02;0.70;;;;;;;13.25;55.95;100770.50;5588757;31;33224;-65
2022/04/16 13:56:47;;;;;;;1.02;0.80;;;;;;;13.29;60.85;100776.31;5589015;31;33531;-64
2022/04/16 13:59:50;;;;;;;1.17;0.88;;;;;;;13.08;59.19;100775.06;5589792;31;34086;-65
2022/04/16 14:02:53;;;;;;;2.62;1.10;;;;;;;13.13;55.85;100792.38;5588496;31;32434;-64
2022/04/16 14:05:56;;;;;;;2.03;1.45;;;;;;;13.17;64.17;100799.03;5588775;31;32717;-64
2022/04/16 14:09:00;;;;;;;2.90;1.55;;;;;;;12.65;68.08;100799.53;5588961;31;32679;-64
2022/04/16 14:12:03;;;;;;;2.17;1.00;;;;;;;12.28;74.08;100791.28;5589509;31;34699;-64
2022/04/16 14:15:08;;;;;;;1.80;1.23;;;;;;;11.87;73.43;100791.31;5589458;31;34306;-64
2022/04/16 14:18:11;;;;;;;2.70;1.80;;;;;;;11.74;76.04;100804.28;5588874;31;32611;-64
2022/04/16 14:21:13;;;;;;;2.20;1.62;;;;;;;11.69;81.69;100806.56;5589585;31;34581;-65
2022/04/16 14:24:16;;;;;;;3.08;1.87;;;;;;;11.59;82.69;100806.72;5588230;31;33237;-65
2022/04/16 14:27:18;;;;;;;2.83;1.80;;;;;;;11.57;81.05;100813.22;5588255;31;32797;-65
2022/04/16 14:30:21;;;;;;;3.05;1.80;;;;;;;11.52;80.45;100812.87;5575642;31;34004;-65
2022/04/16 14:33:24;;;;;;;2.87;1.77;;;;;;;11.51;81.42;100822.66;5588031;31;33090;-65
2022/04/16 14:36:27;;;;;;;3.10;1.83;;;;;;;11.28;83.92;100829.53;5575528;31;33575;-65
2022/04/16 14:39:29;;;;;;;4.20;2.22;;;;;;;11.16;86.78;100829.03;5588337;31;33331;-64